sensor_id;sensor_type;location;lat;lon;timestamp;P1;durP1;ratioP1;P2;durP2;ratioP2
69750;SDS011;57335;52.288;6.056;2022-07-30T00:01:38;21.25;;;9.75;;
69750;SDS011;57335;52.288;6.056;2022-07-30T00:04:04;23.38;;;10.23;;
69750;SDS011;57335;52.288;6.056;2022-07-30T00:06:31;18.10;;;9.15;;
69750;SDS011;57335;52.288;6.056;2022-07-30T00:08:57;22.88;;;10.50;;
69750;SDS011;57335;52.288;6.056;2022-07-30T00:11:24;27.23;;;11.85;;
69750;SDS011;57335;52.288;6.056;2022-07-30T00:13:53;22.88;;;10.93;;
69750;SDS011;57335;52.288;6.056;2022-07-30T00:16:19;22.40;;;10.77;;
69750;SDS011;57335;52.288;6.056;2022-07-30T00:18:46;24.23;;;11.15;;
69750;SDS011;57335;52.288;6.056;2022-07-30T00:21:13;21.42;;;10.27;;
69750;SDS011;57335;52.288;6.056;2022-07-30T00:23:59;23.73;;;10.73;;
69750;SDS011;57335;52.288;6.056;2022-07-30T00:26:27;19.50;;;9.85;;
69750;SDS011;57335;52.288;6.056;2022-07-30T00:28:53;19.52;;;8.68;;
69750;SDS011;57335;52.288;6.056;2022-07-30T00:31:20;21.42;;;9.30;;
69750;SDS011;57335;52.288;6.056;2022-07-30T00:33:46;20.48;;;9.40;;
69750;SDS011;57335;52.288;6.056;2022-07-30T00:36:12;23.83;;;10.85;;
69750;SDS011;57335;52.288;6.056;2022-07-30T00:38:39;22.85;;;10.13;;
69750;SDS011;57335;52.288;6.056;2022-07-30T00:41:05;22.70;;;10.75;;
69750;SDS011;57335;52.288;6.056;2022-07-30T00:43:32;26.08;;;12.05;;
69750;SDS011;57335;52.288;6.056;2022-07-30T00:45:58;18.90;;;9.43;;
69750;SDS011;57335;52.288;6.056;2022-07-30T00:48:24;19.10;;;8.45;;
69750;SDS011;57335;52.288;6.056;2022-07-30T00:50:51;17.83;;;8.88;;
69750;SDS011;57335;52.288;6.056;2022-07-30T00:53:17;21.85;;;10.20;;
69750;SDS011;57335;52.288;6.056;2022-07-30T00:55:44;23.30;;;10.80;;
69750;SDS011;57335;52.288;6.056;2022-07-30T00:58:10;26.98;;;11.48;;
69750;SDS011;57335;52.288;6.056;2022-07-30T01:00:37;24.15;;;10.98;;
69750;SDS011;57335;52.288;6.056;2022-07-30T01:03:03;27.52;;;10.65;;
69750;SDS011;57335;52.288;6.056;2022-07-30T01:05:29;22.65;;;11.30;;
69750;SDS011;57335;52.288;6.056;2022-07-30T01:07:56;24.60;;;10.13;;
69750;SDS011;57335;52.288;6.056;2022-07-30T01:10:22;22.35;;;9.68;;
69750;SDS011;57335;52.288;6.056;2022-07-30T01:12:49;29.70;;;11.23;;
69750;SDS011;57335;52.288;6.056;2022-07-30T01:15:15;27.95;;;10.80;;
69750;SDS011;57335;52.288;6.056;2022-07-30T01:17:42;23.80;;;11.10;;
69750;SDS011;57335;52.288;6.056;2022-07-30T01:20:20;25.40;;;10.18;;
69750;SDS011;57335;52.288;6.056;2022-07-30T01:28:32;26.13;;;10.35;;
69750;SDS011;57335;52.288;6.056;2022-07-30T01:31:01;28.55;;;10.50;;
69750;SDS011;57335;52.288;6.056;2022-07-30T01:33:29;28.50;;;10.93;;
69750;SDS011;57335;52.288;6.056;2022-07-30T01:35:57;27.02;;;10.60;;
69750;SDS011;57335;52.288;6.056;2022-07-30T01:38:25;25.17;;;10.10;;
69750;SDS011;57335;52.288;6.056;2022-07-30T01:41:00;28.38;;;10.45;;
69750;SDS011;57335;52.288;6.056;2022-07-30T01:43:28;24.02;;;10.43;;
69750;SDS011;57335;52.288;6.056;2022-07-30T01:45:56;27.00;;;10.40;;
69750;SDS011;57335;52.288;6.056;2022-07-30T01:48:24;19.42;;;9.00;;
69750;SDS011;57335;52.288;6.056;2022-07-30T01:50:53;20.73;;;9.15;;
69750;SDS011;57335;52.288;6.056;2022-07-30T01:53:22;20.20;;;8.65;;
69750;SDS011;57335;52.288;6.056;2022-07-30T01:55:51;22.17;;;8.77;;
69750;SDS011;57335;52.288;6.056;2022-07-30T01:58:20;22.85;;;8.88;;
69750;SDS011;57335;52.288;6.056;2022-07-30T02:00:49;20.08;;;8.55;;
69750;SDS011;57335;52.288;6.056;2022-07-30T02:03:16;20.23;;;8.55;;
69750;SDS011;57335;52.288;6.056;2022-07-30T02:05:44;19.42;;;8.55;;
69750;SDS011;57335;52.288;6.056;2022-07-30T02:10:53;18.95;;;8.18;;
69750;SDS011;57335;52.288;6.056;2022-07-30T02:13:31;22.25;;;8.48;;
69750;SDS011;57335;52.288;6.056;2022-07-30T02:16:07;22.70;;;9.40;;
69750;SDS011;57335;52.288;6.056;2022-07-30T02:21:10;20.45;;;9.05;;
69750;SDS011;57335;52.288;6.056;2022-07-30T02:23:39;25.30;;;9.32;;
69750;SDS011;57335;52.288;6.056;2022-07-30T02:26:09;21.40;;;9.25;;
69750;SDS011;57335;52.288;6.056;2022-07-30T02:28:39;21.98;;;9.35;;
69750;SDS011;57335;52.288;6.056;2022-07-30T02:31:08;20.92;;;9.15;;
69750;SDS011;57335;52.288;6.056;2022-07-30T02:33:43;20.13;;;8.43;;
69750;SDS011;57335;52.288;6.056;2022-07-30T02:36:14;21.25;;;9.02;;
69750;SDS011;57335;52.288;6.056;2022-07-30T02:38:42;22.52;;;9.07;;
69750;SDS011;57335;52.288;6.056;2022-07-30T02:41:09;24.25;;;9.52;;
69750;SDS011;57335;52.288;6.056;2022-07-30T02:43:38;22.98;;;10.18;;
69750;SDS011;57335;52.288;6.056;2022-07-30T02:46:06;23.95;;;10.43;;
69750;SDS011;57335;52.288;6.056;2022-07-30T02:48:36;21.98;;;9.50;;
69750;SDS011;57335;52.288;6.056;2022-07-30T02:51:05;29.30;;;10.38;;
69750;SDS011;57335;52.288;6.056;2022-07-30T02:53:33;24.60;;;10.00;;
69750;SDS011;57335;52.288;6.056;2022-07-30T02:56:01;20.85;;;9.45;;
69750;SDS011;57335;52.288;6.056;2022-07-30T02:58:30;23.15;;;9.57;;
69750;SDS011;57335;52.288;6.056;2022-07-30T03:00:57;27.75;;;10.07;;
69750;SDS011;57335;52.288;6.056;2022-07-30T03:03:28;22.95;;;9.48;;
69750;SDS011;57335;52.288;6.056;2022-07-30T03:05:56;21.70;;;9.05;;
69750;SDS011;57335;52.288;6.056;2022-07-30T03:08:24;22.77;;;9.20;;
69750;SDS011;57335;52.288;6.056;2022-07-30T03:10:52;24.77;;;9.73;;
69750;SDS011;57335;52.288;6.056;2022-07-30T03:13:21;22.48;;;9.52;;
69750;SDS011;57335;52.288;6.056;2022-07-30T03:15:50;23.98;;;9.73;;
69750;SDS011;57335;52.288;6.056;2022-07-30T03:18:18;25.48;;;9.95;;
69750;SDS011;57335;52.288;6.056;2022-07-30T03:20:46;22.20;;;9.45;;
69750;SDS011;57335;52.288;6.056;2022-07-30T03:23:15;29.65;;;9.60;;
69750;SDS011;57335;52.288;6.056;2022-07-30T03:25:44;24.90;;;9.70;;
69750;SDS011;57335;52.288;6.056;2022-07-30T03:28:14;25.45;;;10.27;;
69750;SDS011;57335;52.288;6.056;2022-07-30T03:30:41;23.48;;;10.25;;
69750;SDS011;57335;52.288;6.056;2022-07-30T03:33:08;24.58;;;9.77;;
69750;SDS011;57335;52.288;6.056;2022-07-30T03:35:38;22.45;;;9.45;;
69750;SDS011;57335;52.288;6.056;2022-07-30T03:38:14;23.25;;;10.27;;
69750;SDS011;57335;52.288;6.056;2022-07-30T03:40:42;26.02;;;9.15;;
69750;SDS011;57335;52.288;6.056;2022-07-30T03:43:09;24.00;;;9.75;;
69750;SDS011;57335;52.288;6.056;2022-07-30T03:45:56;23.80;;;9.32;;
69750;SDS011;57335;52.288;6.056;2022-07-30T03:48:23;23.17;;;9.98;;
69750;SDS011;57335;52.288;6.056;2022-07-30T03:50:50;25.52;;;9.90;;
69750;SDS011;57335;52.288;6.056;2022-07-30T03:53:17;27.27;;;10.13;;
69750;SDS011;57335;52.288;6.056;2022-07-30T03:55:44;23.83;;;10.05;;
69750;SDS011;57335;52.288;6.056;2022-07-30T03:58:11;24.88;;;9.27;;
69750;SDS011;57335;52.288;6.056;2022-07-30T04:00:37;37.25;;;12.18;;
69750;SDS011;57335;52.288;6.056;2022-07-30T04:03:04;24.98;;;11.13;;
69750;SDS011;57335;52.288;6.056;2022-07-30T04:05:31;25.65;;;11.32;;
69750;SDS011;57335;52.288;6.056;2022-07-30T04:08:06;29.27;;;12.15;;
69750;SDS011;57335;52.288;6.056;2022-07-30T04:10:33;25.77;;;11.40;;
69750;SDS011;57335;52.288;6.056;2022-07-30T04:12:59;26.63;;;11.00;;
69750;SDS011;57335;52.288;6.056;2022-07-30T04:15:25;26.38;;;11.02;;
69750;SDS011;57335;52.288;6.056;2022-07-30T04:18:12;24.73;;;10.32;;
69750;SDS011;57335;52.288;6.056;2022-07-30T04:20:42;21.98;;;9.98;;
69750;SDS011;57335;52.288;6.056;2022-07-30T04:23:11;21.42;;;9.85;;
69750;SDS011;57335;52.288;6.056;2022-07-30T04:25:38;21.88;;;10.10;;
69750;SDS011;57335;52.288;6.056;2022-07-30T04:28:08;19.63;;;9.00;;
69750;SDS011;57335;52.288;6.056;2022-07-30T04:30:35;21.05;;;9.68;;
69750;SDS011;57335;52.288;6.056;2022-07-30T04:33:02;22.30;;;9.30;;
69750;SDS011;57335;52.288;6.056;2022-07-30T04:35:30;22.50;;;9.52;;
69750;SDS011;57335;52.288;6.056;2022-07-30T04:38:17;21.70;;;9.57;;
69750;SDS011;57335;52.288;6.056;2022-07-30T04:40:44;17.30;;;9.05;;
69750;SDS011;57335;52.288;6.056;2022-07-30T04:43:11;20.20;;;8.75;;
69750;SDS011;57335;52.288;6.056;2022-07-30T04:45:40;22.02;;;9.68;;
69750;SDS011;57335;52.288;6.056;2022-07-30T04:48:07;18.27;;;8.38;;
69750;SDS011;57335;52.288;6.056;2022-07-30T04:50:33;19.88;;;8.95;;
69750;SDS011;57335;52.288;6.056;2022-07-30T04:53:03;21.08;;;8.40;;
69750;SDS011;57335;52.288;6.056;2022-07-30T04:55:30;21.60;;;9.60;;
69750;SDS011;57335;52.288;6.056;2022-07-30T04:57:57;20.23;;;8.93;;
69750;SDS011;57335;52.288;6.056;2022-07-30T05:00:27;19.35;;;8.45;;
69750;SDS011;57335;52.288;6.056;2022-07-30T05:02:57;19.35;;;8.57;;
69750;SDS011;57335;52.288;6.056;2022-07-30T05:05:25;19.13;;;8.07;;
69750;SDS011;57335;52.288;6.056;2022-07-30T05:07:53;19.35;;;8.68;;
69750;SDS011;57335;52.288;6.056;2022-07-30T05:10:20;17.35;;;7.97;;
69750;SDS011;57335;52.288;6.056;2022-07-30T05:12:46;16.95;;;7.72;;
69750;SDS011;57335;52.288;6.056;2022-07-30T05:15:13;18.33;;;8.18;;
69750;SDS011;57335;52.288;6.056;2022-07-30T05:17:39;15.27;;;7.65;;
69750;SDS011;57335;52.288;6.056;2022-07-30T05:20:05;16.75;;;8.50;;
69750;SDS011;57335;52.288;6.056;2022-07-30T05:22:32;14.73;;;7.38;;
69750;SDS011;57335;52.288;6.056;2022-07-30T05:24:58;16.13;;;7.13;;
69750;SDS011;57335;52.288;6.056;2022-07-30T05:27:25;13.90;;;7.18;;
69750;SDS011;57335;52.288;6.056;2022-07-30T05:29:51;14.05;;;6.63;;
69750;SDS011;57335;52.288;6.056;2022-07-30T05:32:20;11.70;;;5.90;;
69750;SDS011;57335;52.288;6.056;2022-07-30T05:34:50;13.15;;;5.80;;
69750;SDS011;57335;52.288;6.056;2022-07-30T05:37:17;12.68;;;5.45;;
69750;SDS011;57335;52.288;6.056;2022-07-30T05:39:43;9.43;;;4.90;;
69750;SDS011;57335;52.288;6.056;2022-07-30T05:42:28;11.05;;;4.85;;
69750;SDS011;57335;52.288;6.056;2022-07-30T05:44:55;12.15;;;4.55;;
69750;SDS011;57335;52.288;6.056;2022-07-30T05:47:21;8.30;;;3.88;;
69750;SDS011;57335;52.288;6.056;2022-07-30T05:49:48;10.23;;;3.92;;
69750;SDS011;57335;52.288;6.056;2022-07-30T05:52:14;8.90;;;4.32;;
69750;SDS011;57335;52.288;6.056;2022-07-30T05:54:40;9.68;;;4.07;;
69750;SDS011;57335;52.288;6.056;2022-07-30T05:57:07;10.10;;;4.10;;
69750;SDS011;57335;52.288;6.056;2022-07-30T05:59:33;10.38;;;4.00;;
69750;SDS011;57335;52.288;6.056;2022-07-30T06:02:00;8.55;;;3.88;;
69750;SDS011;57335;52.288;6.056;2022-07-30T06:04:28;12.07;;;3.95;;
69750;SDS011;57335;52.288;6.056;2022-07-30T06:06:54;8.15;;;3.78;;
69750;SDS011;57335;52.288;6.056;2022-07-30T06:09:21;9.43;;;3.60;;
69750;SDS011;57335;52.288;6.056;2022-07-30T06:12:01;12.10;;;3.92;;
69750;SDS011;57335;52.288;6.056;2022-07-30T06:14:28;9.05;;;3.70;;
69750;SDS011;57335;52.288;6.056;2022-07-30T06:16:54;11.23;;;3.65;;
69750;SDS011;57335;52.288;6.056;2022-07-30T06:19:21;8.43;;;3.53;;
69750;SDS011;57335;52.288;6.056;2022-07-30T06:21:47;7.15;;;3.40;;
69750;SDS011;57335;52.288;6.056;2022-07-30T06:24:32;9.73;;;3.50;;
69750;SDS011;57335;52.288;6.056;2022-07-30T06:26:58;6.97;;;3.10;;
69750;SDS011;57335;52.288;6.056;2022-07-30T06:29:26;7.97;;;3.33;;
69750;SDS011;57335;52.288;6.056;2022-07-30T06:31:52;10.23;;;3.25;;
69750;SDS011;57335;52.288;6.056;2022-07-30T06:34:18;7.72;;;3.20;;
69750;SDS011;57335;52.288;6.056;2022-07-30T06:36:45;8.50;;;3.13;;
69750;SDS011;57335;52.288;6.056;2022-07-30T06:39:11;6.95;;;3.00;;
69750;SDS011;57335;52.288;6.056;2022-07-30T06:41:38;7.45;;;2.92;;
69750;SDS011;57335;52.288;6.056;2022-07-30T06:44:04;7.93;;;3.40;;
69750;SDS011;57335;52.288;6.056;2022-07-30T06:46:30;7.10;;;3.00;;
69750;SDS011;57335;52.288;6.056;2022-07-30T06:48:57;6.80;;;3.00;;
69750;SDS011;57335;52.288;6.056;2022-07-30T06:51:25;6.47;;;2.80;;
69750;SDS011;57335;52.288;6.056;2022-07-30T06:53:51;8.82;;;2.85;;
69750;SDS011;57335;52.288;6.056;2022-07-30T06:56:17;7.00;;;2.83;;
69750;SDS011;57335;52.288;6.056;2022-07-30T06:58:44;7.18;;;2.85;;
69750;SDS011;57335;52.288;6.056;2022-07-30T07:01:10;9.18;;;3.20;;
69750;SDS011;57335;52.288;6.056;2022-07-30T07:03:37;8.48;;;3.20;;
69750;SDS011;57335;52.288;6.056;2022-07-30T07:06:05;7.30;;;3.08;;
69750;SDS011;57335;52.288;6.056;2022-07-30T07:08:34;9.60;;;3.50;;
69750;SDS011;57335;52.288;6.056;2022-07-30T07:11:01;9.00;;;3.17;;
69750;SDS011;57335;52.288;6.056;2022-07-30T07:13:27;8.20;;;3.10;;
69750;SDS011;57335;52.288;6.056;2022-07-30T07:15:54;7.78;;;2.80;;
69750;SDS011;57335;52.288;6.056;2022-07-30T07:18:21;7.75;;;2.85;;
69750;SDS011;57335;52.288;6.056;2022-07-30T07:20:48;8.00;;;3.03;;
69750;SDS011;57335;52.288;6.056;2022-07-30T07:23:14;6.93;;;2.95;;
69750;SDS011;57335;52.288;6.056;2022-07-30T07:25:45;6.80;;;2.90;;
69750;SDS011;57335;52.288;6.056;2022-07-30T07:28:11;8.43;;;2.90;;
69750;SDS011;57335;52.288;6.056;2022-07-30T07:30:39;7.65;;;2.80;;
69750;SDS011;57335;52.288;6.056;2022-07-30T07:33:07;7.47;;;2.72;;
69750;SDS011;57335;52.288;6.056;2022-07-30T07:35:33;6.63;;;2.53;;
69750;SDS011;57335;52.288;6.056;2022-07-30T07:38:14;6.32;;;2.40;;
69750;SDS011;57335;52.288;6.056;2022-07-30T07:40:41;8.98;;;2.60;;
69750;SDS011;57335;52.288;6.056;2022-07-30T07:43:07;7.63;;;2.40;;
69750;SDS011;57335;52.288;6.056;2022-07-30T07:45:33;5.97;;;2.33;;
69750;SDS011;57335;52.288;6.056;2022-07-30T07:48:00;5.95;;;2.53;;
69750;SDS011;57335;52.288;6.056;2022-07-30T07:50:26;8.15;;;2.22;;
69750;SDS011;57335;52.288;6.056;2022-07-30T07:52:53;6.40;;;2.03;;
69750;SDS011;57335;52.288;6.056;2022-07-30T07:55:21;6.43;;;2.35;;
69750;SDS011;57335;52.288;6.056;2022-07-30T07:57:47;6.25;;;2.30;;
69750;SDS011;57335;52.288;6.056;2022-07-30T08:00:14;6.25;;;2.20;;
69750;SDS011;57335;52.288;6.056;2022-07-30T08:02:41;6.07;;;2.05;;
69750;SDS011;57335;52.288;6.056;2022-07-30T08:05:08;7.40;;;2.15;;
69750;SDS011;57335;52.288;6.056;2022-07-30T08:07:35;5.82;;;1.95;;
69750;SDS011;57335;52.288;6.056;2022-07-30T08:10:01;6.72;;;2.20;;
69750;SDS011;57335;52.288;6.056;2022-07-30T08:12:28;6.38;;;1.90;;
69750;SDS011;57335;52.288;6.056;2022-07-30T08:14:55;6.32;;;2.13;;
69750;SDS011;57335;52.288;6.056;2022-07-30T08:17:21;7.10;;;2.00;;
69750;SDS011;57335;52.288;6.056;2022-07-30T08:19:48;7.00;;;2.10;;
69750;SDS011;57335;52.288;6.056;2022-07-30T08:22:14;6.35;;;1.88;;
69750;SDS011;57335;52.288;6.056;2022-07-30T08:24:41;6.47;;;2.30;;
69750;SDS011;57335;52.288;6.056;2022-07-30T08:27:08;5.93;;;2.28;;
69750;SDS011;57335;52.288;6.056;2022-07-30T08:29:34;5.50;;;2.03;;
69750;SDS011;57335;52.288;6.056;2022-07-30T08:32:01;4.18;;;1.70;;
69750;SDS011;57335;52.288;6.056;2022-07-30T08:34:29;6.53;;;2.00;;
69750;SDS011;57335;52.288;6.056;2022-07-30T08:36:55;6.85;;;2.25;;
69750;SDS011;57335;52.288;6.056;2022-07-30T08:39:21;6.47;;;2.28;;
69750;SDS011;57335;52.288;6.056;2022-07-30T08:41:48;5.32;;;1.77;;
69750;SDS011;57335;52.288;6.056;2022-07-30T08:44:15;5.78;;;1.70;;
69750;SDS011;57335;52.288;6.056;2022-07-30T08:46:43;6.72;;;2.05;;
69750;SDS011;57335;52.288;6.056;2022-07-30T08:49:13;4.88;;;1.90;;
69750;SDS011;57335;52.288;6.056;2022-07-30T08:51:40;6.53;;;1.88;;
69750;SDS011;57335;52.288;6.056;2022-07-30T08:54:07;6.38;;;1.90;;
69750;SDS011;57335;52.288;6.056;2022-07-30T08:56:34;4.88;;;1.50;;
69750;SDS011;57335;52.288;6.056;2022-07-30T08:59:01;6.57;;;2.00;;
69750;SDS011;57335;52.288;6.056;2022-07-30T09:01:27;5.95;;;1.77;;
69750;SDS011;57335;52.288;6.056;2022-07-30T09:03:54;4.15;;;1.73;;
69750;SDS011;57335;52.288;6.056;2022-07-30T09:06:20;6.40;;;1.85;;
69750;SDS011;57335;52.288;6.056;2022-07-30T09:08:47;5.00;;;1.80;;
69750;SDS011;57335;52.288;6.056;2022-07-30T09:11:14;6.05;;;1.80;;
69750;SDS011;57335;52.288;6.056;2022-07-30T09:13:41;7.03;;;1.70;;
69750;SDS011;57335;52.288;6.056;2022-07-30T09:16:17;6.47;;;1.80;;
69750;SDS011;57335;52.288;6.056;2022-07-30T09:18:48;3.60;;;1.33;;
69750;SDS011;57335;52.288;6.056;2022-07-30T09:21:23;4.55;;;1.60;;
69750;SDS011;57335;52.288;6.056;2022-07-30T09:23:54;5.47;;;1.75;;
69750;SDS011;57335;52.288;6.056;2022-07-30T09:26:21;5.03;;;1.50;;
69750;SDS011;57335;52.288;6.056;2022-07-30T09:28:47;5.05;;;1.65;;
69750;SDS011;57335;52.288;6.056;2022-07-30T09:31:14;4.13;;;1.70;;
69750;SDS011;57335;52.288;6.056;2022-07-30T09:33:42;5.47;;;1.80;;
69750;SDS011;57335;52.288;6.056;2022-07-30T09:36:13;5.72;;;1.88;;
69750;SDS011;57335;52.288;6.056;2022-07-30T09:38:46;5.18;;;1.83;;
69750;SDS011;57335;52.288;6.056;2022-07-30T09:41:18;5.93;;;1.70;;
69750;SDS011;57335;52.288;6.056;2022-07-30T09:44:04;6.10;;;1.52;;
69750;SDS011;57335;52.288;6.056;2022-07-30T09:46:41;4.70;;;1.70;;
69750;SDS011;57335;52.288;6.056;2022-07-30T09:49:18;6.35;;;1.60;;
69750;SDS011;57335;52.288;6.056;2022-07-30T09:51:47;4.05;;;1.48;;
69750;SDS011;57335;52.288;6.056;2022-07-30T09:54:22;5.15;;;1.83;;
69750;SDS011;57335;52.288;6.056;2022-07-30T09:57:17;7.90;;;1.75;;
69750;SDS011;57335;52.288;6.056;2022-07-30T09:59:56;4.60;;;1.40;;
69750;SDS011;57335;52.288;6.056;2022-07-30T10:02:31;5.40;;;1.85;;
69750;SDS011;57335;52.288;6.056;2022-07-30T10:05:08;3.58;;;1.55;;
69750;SDS011;57335;52.288;6.056;2022-07-30T10:15:53;6.60;;;1.80;;
69750;SDS011;57335;52.288;6.056;2022-07-30T10:18:20;4.28;;;1.48;;
69750;SDS011;57335;52.288;6.056;2022-07-30T10:20:46;5.43;;;1.95;;
69750;SDS011;57335;52.288;6.056;2022-07-30T10:23:13;4.93;;;1.70;;
69750;SDS011;57335;52.288;6.056;2022-07-30T10:25:41;3.83;;;1.50;;
69750;SDS011;57335;52.288;6.056;2022-07-30T10:28:20;3.10;;;1.60;;
69750;SDS011;57335;52.288;6.056;2022-07-30T10:30:53;4.75;;;1.60;;
69750;SDS011;57335;52.288;6.056;2022-07-30T10:33:24;5.30;;;1.63;;
69750;SDS011;57335;52.288;6.056;2022-07-30T10:36:05;4.75;;;1.70;;
69750;SDS011;57335;52.288;6.056;2022-07-30T10:38:34;5.45;;;1.67;;
69750;SDS011;57335;52.288;6.056;2022-07-30T10:41:16;5.63;;;2.03;;
69750;SDS011;57335;52.288;6.056;2022-07-30T10:44:18;3.63;;;1.55;;
69750;SDS011;57335;52.288;6.056;2022-07-30T10:52:06;4.15;;;1.50;;
69750;SDS011;57335;52.288;6.056;2022-07-30T11:02:20;3.22;;;1.50;;
69750;SDS011;57335;52.288;6.056;2022-07-30T11:04:48;3.25;;;1.50;;
69750;SDS011;57335;52.288;6.056;2022-07-30T11:09:48;5.63;;;1.35;;
69750;SDS011;57335;52.288;6.056;2022-07-30T11:15:09;8.85;;;1.70;;
69750;SDS011;57335;52.288;6.056;2022-07-30T11:18:00;5.03;;;1.50;;
69750;SDS011;57335;52.288;6.056;2022-07-30T11:20:39;5.25;;;1.60;;
69750;SDS011;57335;52.288;6.056;2022-07-30T11:23:09;4.78;;;1.60;;
69750;SDS011;57335;52.288;6.056;2022-07-30T11:25:40;5.82;;;1.63;;
69750;SDS011;57335;52.288;6.056;2022-07-30T11:28:32;4.93;;;1.60;;
69750;SDS011;57335;52.288;6.056;2022-07-30T11:31:00;3.72;;;1.50;;
69750;SDS011;57335;52.288;6.056;2022-07-30T11:33:35;4.50;;;1.40;;
69750;SDS011;57335;52.288;6.056;2022-07-30T11:41:18;3.38;;;1.52;;
69750;SDS011;57335;52.288;6.056;2022-07-30T11:43:44;3.35;;;1.33;;
69750;SDS011;57335;52.288;6.056;2022-07-30T11:48:42;4.18;;;1.52;;
69750;SDS011;57335;52.288;6.056;2022-07-30T11:51:21;3.42;;;1.27;;
69750;SDS011;57335;52.288;6.056;2022-07-30T11:54:01;6.00;;;1.50;;
69750;SDS011;57335;52.288;6.056;2022-07-30T11:56:31;3.15;;;1.30;;
69750;SDS011;57335;52.288;6.056;2022-07-30T11:59:02;3.25;;;1.20;;
69750;SDS011;57335;52.288;6.056;2022-07-30T12:01:30;2.90;;;1.30;;
69750;SDS011;57335;52.288;6.056;2022-07-30T12:03:56;5.18;;;1.70;;
69750;SDS011;57335;52.288;6.056;2022-07-30T12:06:23;2.85;;;1.40;;
69750;SDS011;57335;52.288;6.056;2022-07-30T12:08:50;3.17;;;1.30;;
69750;SDS011;57335;52.288;6.056;2022-07-30T12:11:24;2.67;;;1.13;;
69750;SDS011;57335;52.288;6.056;2022-07-30T12:13:57;3.88;;;1.48;;
69750;SDS011;57335;52.288;6.056;2022-07-30T12:16:24;3.55;;;1.30;;
69750;SDS011;57335;52.288;6.056;2022-07-30T12:18:52;4.70;;;1.40;;
69750;SDS011;57335;52.288;6.056;2022-07-30T12:21:18;3.10;;;1.40;;
69750;SDS011;57335;52.288;6.056;2022-07-30T12:23:59;2.63;;;1.30;;
69750;SDS011;57335;52.288;6.056;2022-07-30T12:26:31;2.47;;;1.30;;
69750;SDS011;57335;52.288;6.056;2022-07-30T12:29:02;4.00;;;1.30;;
69750;SDS011;57335;52.288;6.056;2022-07-30T12:31:31;5.38;;;1.58;;
69750;SDS011;57335;52.288;6.056;2022-07-30T12:33:58;5.00;;;1.70;;
69750;SDS011;57335;52.288;6.056;2022-07-30T12:36:31;2.78;;;1.40;;
69750;SDS011;57335;52.288;6.056;2022-07-30T12:39:00;3.58;;;1.50;;
69750;SDS011;57335;52.288;6.056;2022-07-30T12:41:44;4.38;;;1.58;;
69750;SDS011;57335;52.288;6.056;2022-07-30T12:49:43;8.57;;;1.80;;
69750;SDS011;57335;52.288;6.056;2022-07-30T12:52:27;3.60;;;1.67;;
69750;SDS011;57335;52.288;6.056;2022-07-30T12:55:00;2.67;;;1.40;;
69750;SDS011;57335;52.288;6.056;2022-07-30T12:57:27;5.43;;;1.60;;
69750;SDS011;57335;52.288;6.056;2022-07-30T13:00:14;4.60;;;1.67;;
69750;SDS011;57335;52.288;6.056;2022-07-30T13:02:40;4.63;;;1.80;;
69750;SDS011;57335;52.288;6.056;2022-07-30T13:05:07;4.35;;;1.58;;
69750;SDS011;57335;52.288;6.056;2022-07-30T13:07:56;4.35;;;1.60;;
69750;SDS011;57335;52.288;6.056;2022-07-30T13:10:24;4.95;;;1.70;;
69750;SDS011;57335;52.288;6.056;2022-07-30T13:12:56;3.78;;;1.65;;
69750;SDS011;57335;52.288;6.056;2022-07-30T13:15:22;2.85;;;1.50;;
69750;SDS011;57335;52.288;6.056;2022-07-30T13:17:48;4.07;;;1.60;;
69750;SDS011;57335;52.288;6.056;2022-07-30T13:20:15;4.65;;;2.05;;
69750;SDS011;57335;52.288;6.056;2022-07-30T13:22:42;3.50;;;1.73;;
69750;SDS011;57335;52.288;6.056;2022-07-30T13:25:10;3.75;;;1.67;;
69750;SDS011;57335;52.288;6.056;2022-07-30T13:27:36;4.60;;;1.65;;
69750;SDS011;57335;52.288;6.056;2022-07-30T13:30:03;4.43;;;1.70;;
69750;SDS011;57335;52.288;6.056;2022-07-30T13:32:30;3.97;;;1.77;;
69750;SDS011;57335;52.288;6.056;2022-07-30T13:34:56;4.15;;;1.73;;
69750;SDS011;57335;52.288;6.056;2022-07-30T13:37:27;4.25;;;1.63;;
69750;SDS011;57335;52.288;6.056;2022-07-30T13:40:03;5.57;;;1.90;;
69750;SDS011;57335;52.288;6.056;2022-07-30T13:42:30;4.93;;;2.05;;
69750;SDS011;57335;52.288;6.056;2022-07-30T13:44:57;3.35;;;1.48;;
69750;SDS011;57335;52.288;6.056;2022-07-30T13:47:23;3.50;;;1.60;;
69750;SDS011;57335;52.288;6.056;2022-07-30T13:49:49;6.10;;;1.83;;
69750;SDS011;57335;52.288;6.056;2022-07-30T13:52:16;4.65;;;1.75;;
69750;SDS011;57335;52.288;6.056;2022-07-30T13:54:42;4.57;;;1.67;;
69750;SDS011;57335;52.288;6.056;2022-07-30T13:57:09;6.47;;;2.10;;
69750;SDS011;57335;52.288;6.056;2022-07-30T13:59:35;6.05;;;1.90;;
69750;SDS011;57335;52.288;6.056;2022-07-30T14:02:01;3.70;;;1.58;;
69750;SDS011;57335;52.288;6.056;2022-07-30T14:04:28;13.55;;;2.80;;
69750;SDS011;57335;52.288;6.056;2022-07-30T14:06:55;5.32;;;1.60;;
69750;SDS011;57335;52.288;6.056;2022-07-30T14:09:21;4.35;;;1.67;;
69750;SDS011;57335;52.288;6.056;2022-07-30T14:11:47;6.40;;;1.80;;
69750;SDS011;57335;52.288;6.056;2022-07-30T14:14:14;4.50;;;1.63;;
69750;SDS011;57335;52.288;6.056;2022-07-30T14:16:40;3.70;;;1.60;;
69750;SDS011;57335;52.288;6.056;2022-07-30T14:19:11;4.65;;;1.70;;
69750;SDS011;57335;52.288;6.056;2022-07-30T14:21:49;4.70;;;1.70;;
69750;SDS011;57335;52.288;6.056;2022-07-30T14:24:17;5.80;;;1.85;;
69750;SDS011;57335;52.288;6.056;2022-07-30T14:26:43;5.28;;;1.90;;
69750;SDS011;57335;52.288;6.056;2022-07-30T14:29:09;4.55;;;1.80;;
69750;SDS011;57335;52.288;6.056;2022-07-30T14:31:36;5.65;;;1.95;;
69750;SDS011;57335;52.288;6.056;2022-07-30T14:34:03;5.47;;;1.83;;
69750;SDS011;57335;52.288;6.056;2022-07-30T14:36:29;8.27;;;2.08;;
69750;SDS011;57335;52.288;6.056;2022-07-30T14:38:56;6.88;;;2.00;;
69750;SDS011;57335;52.288;6.056;2022-07-30T14:41:23;4.53;;;1.77;;
69750;SDS011;57335;52.288;6.056;2022-07-30T14:43:50;4.85;;;1.90;;
69750;SDS011;57335;52.288;6.056;2022-07-30T14:46:16;5.03;;;1.90;;
69750;SDS011;57335;52.288;6.056;2022-07-30T14:48:43;5.30;;;1.80;;
69750;SDS011;57335;52.288;6.056;2022-07-30T14:51:09;6.25;;;1.83;;
69750;SDS011;57335;52.288;6.056;2022-07-30T14:53:45;6.65;;;1.92;;
69750;SDS011;57335;52.288;6.056;2022-07-30T14:56:12;5.53;;;2.30;;
69750;SDS011;57335;52.288;6.056;2022-07-30T14:58:39;8.07;;;1.95;;
69750;SDS011;57335;52.288;6.056;2022-07-30T15:01:05;5.45;;;1.83;;
69750;SDS011;57335;52.288;6.056;2022-07-30T15:03:41;6.20;;;1.88;;
69750;SDS011;57335;52.288;6.056;2022-07-30T15:06:07;5.57;;;1.90;;
69750;SDS011;57335;52.288;6.056;2022-07-30T15:08:34;5.63;;;1.83;;
69750;SDS011;57335;52.288;6.056;2022-07-30T15:11:00;5.68;;;1.90;;
69750;SDS011;57335;52.288;6.056;2022-07-30T15:13:31;6.30;;;1.88;;
69750;SDS011;57335;52.288;6.056;2022-07-30T15:15:57;6.22;;;2.08;;
69750;SDS011;57335;52.288;6.056;2022-07-30T15:18:24;5.80;;;1.90;;
69750;SDS011;57335;52.288;6.056;2022-07-30T15:20:51;4.75;;;1.80;;
69750;SDS011;57335;52.288;6.056;2022-07-30T15:23:18;5.05;;;2.17;;
69750;SDS011;57335;52.288;6.056;2022-07-30T15:25:44;5.28;;;2.05;;
69750;SDS011;57335;52.288;6.056;2022-07-30T15:28:10;6.63;;;2.13;;
69750;SDS011;57335;52.288;6.056;2022-07-30T15:30:37;7.00;;;2.03;;
69750;SDS011;57335;52.288;6.056;2022-07-30T15:33:03;7.43;;;1.95;;
69750;SDS011;57335;52.288;6.056;2022-07-30T15:35:30;7.57;;;2.00;;
69750;SDS011;57335;52.288;6.056;2022-07-30T15:37:57;5.30;;;1.85;;
69750;SDS011;57335;52.288;6.056;2022-07-30T15:40:23;4.57;;;2.05;;
69750;SDS011;57335;52.288;6.056;2022-07-30T15:42:49;5.03;;;1.90;;